sensor_id;sensor_type;location;lat;lon;timestamp;pressure;altitude;pressure_sealevel;temperature;humidity
43701;BME280;58809;47.984;7.964;2023-02-19T00:00:43;97951.75;;;10.67;72.50
43701;BME280;58809;47.984;7.964;2023-02-19T00:03:49;97961.50;;;10.67;72.39
43701;BME280;58809;47.984;7.964;2023-02-19T00:06:52;97970.44;;;10.66;71.97
43701;BME280;58809;47.984;7.964;2023-02-19T00:09:54;97948.25;;;10.58;72.52
43701;BME280;58809;47.984;7.964;2023-02-19T00:12:55;97959.50;;;10.52;72.45
43701;BME280;58809;47.984;7.964;2023-02-19T00:15:57;97934.69;;;10.53;71.88
43701;BME280;58809;47.984;7.964;2023-02-19T00:19:00;97934.03;;;10.51;72.32
43701;BME280;58809;47.984;7.964;2023-02-19T00:22:02;97933.69;;;10.46;72.39
43701;BME280;58809;47.984;7.964;2023-02-19T00:25:03;97941.28;;;10.41;72.93
43701;BME280;58809;47.984;7.964;2023-02-19T00:28:05;97933.00;;;10.36;72.65
43701;BME280;58809;47.984;7.964;2023-02-19T00:31:09;97939.75;;;10.38;73.15
43701;BME280;58809;47.984;7.964;2023-02-19T00:34:13;97962.75;;;10.38;73.04
43701;BME280;58809;47.984;7.964;2023-02-19T00:37:15;97938.94;;;10.38;72.36
43701;BME280;58809;47.984;7.964;2023-02-19T00:40:17;97929.69;;;10.42;72.33
43701;BME280;58809;47.984;7.964;2023-02-19T00:43:18;97923.22;;;10.36;72.39
43701;BME280;58809;47.984;7.964;2023-02-19T00:46:39;97926.22;;;10.42;72.86
43701;BME280;58809;47.984;7.964;2023-02-19T00:49:42;97935.31;;;10.39;72.35
43701;BME280;58809;47.984;7.964;2023-02-19T00:52:44;97934.66;;;10.37;71.86
43701;BME280;58809;47.984;7.964;2023-02-19T00:55:45;97930.19;;;10.37;72.03
43701;BME280;58809;47.984;7.964;2023-02-19T00:58:47;97925.72;;;10.38;71.75
43701;BME280;58809;47.984;7.964;2023-02-19T01:01:49;97926.53;;;10.38;71.54
43701;BME280;58809;47.984;7.964;2023-02-19T01:04:51;97921.25;;;10.38;71.60
43701;BME280;58809;47.984;7.964;2023-02-19T01:07:53;97912.66;;;10.36;71.99
43701;BME280;58809;47.984;7.964;2023-02-19T01:10:54;97906.53;;;10.36;71.83
43701;BME280;58809;47.984;7.964;2023-02-19T01:13:57;97912.16;;;10.33;71.90
43701;BME280;58809;47.984;7.964;2023-02-19T01:16:59;97902.19;;;10.27;72.46
43701;BME280;58809;47.984;7.964;2023-02-19T01:20:00;97892.94;;;10.23;72.57
43701;BME280;58809;47.984;7.964;2023-02-19T01:23:02;97900.72;;;10.24;72.41
43701;BME280;58809;47.984;7.964;2023-02-19T01:26:10;97908.81;;;10.23;71.89
43701;BME280;58809;47.984;7.964;2023-02-19T01:29:12;97921.50;;;10.19;72.64
43701;BME280;58809;47.984;7.964;2023-02-19T01:32:13;97919.03;;;10.17;72.51
43701;BME280;58809;47.984;7.964;2023-02-19T01:35:15;97892.75;;;10.16;72.80
43701;BME280;58809;47.984;7.964;2023-02-19T01:38:16;97880.34;;;10.16;72.30
43701;BME280;58809;47.984;7.964;2023-02-19T01:41:20;97885.13;;;10.13;72.37
43701;BME280;58809;47.984;7.964;2023-02-19T01:47:24;97875.22;;;10.15;72.51
43701;BME280;58809;47.984;7.964;2023-02-19T01:50:27;97856.22;;;10.11;73.06
43701;BME280;58809;47.984;7.964;2023-02-19T01:53:33;97861.50;;;10.11;73.04
43701;BME280;58809;47.984;7.964;2023-02-19T01:56:39;97864.16;;;10.11;72.99
43701;BME280;58809;47.984;7.964;2023-02-19T01:59:43;97871.22;;;10.11;72.82
43701;BME280;58809;47.984;7.964;2023-02-19T02:02:49;97897.00;;;10.09;72.81
43701;BME280;58809;47.984;7.964;2023-02-19T02:06:12;97884.28;;;10.12;72.58
43701;BME280;58809;47.984;7.964;2023-02-19T02:09:21;97882.97;;;10.08;72.37
43701;BME280;58809;47.984;7.964;2023-02-19T02:12:43;97866.13;;;10.09;73.42
43701;BME280;58809;47.984;7.964;2023-02-19T02:26:23;97889.69;;;9.94;74.14
43701;BME280;58809;47.984;7.964;2023-02-19T02:36:23;97897.91;;;9.83;74.30
43701;BME280;58809;47.984;7.964;2023-02-19T02:39:28;97892.78;;;9.81;74.85
43701;BME280;58809;47.984;7.964;2023-02-19T02:42:33;97897.75;;;9.76;74.60
43701;BME280;58809;47.984;7.964;2023-02-19T02:45:42;97895.41;;;9.73;75.31
43701;BME280;58809;47.984;7.964;2023-02-19T02:48:57;97896.22;;;9.74;74.36
43701;BME280;58809;47.984;7.964;2023-02-19T02:52:00;97923.66;;;9.73;74.41
43701;BME280;58809;47.984;7.964;2023-02-19T02:55:24;97909.59;;;9.72;74.50
43701;BME280;58809;47.984;7.964;2023-02-19T02:58:26;97906.28;;;9.70;75.33
43701;BME280;58809;47.984;7.964;2023-02-19T03:01:47;97902.97;;;9.68;75.52
43701;BME280;58809;47.984;7.964;2023-02-19T03:05:13;97902.69;;;9.45;78.27
43701;BME280;58809;47.984;7.964;2023-02-19T03:09:05;97892.72;;;9.31;80.26
43701;BME280;58809;47.984;7.964;2023-02-19T03:12:14;97904.56;;;9.27;80.96
43701;BME280;58809;47.984;7.964;2023-02-19T03:16:01;97914.28;;;9.26;81.60
43701;BME280;58809;47.984;7.964;2023-02-19T03:19:26;97887.53;;;9.21;82.65
43701;BME280;58809;47.984;7.964;2023-02-19T03:22:32;97892.47;;;9.16;83.60
43701;BME280;58809;47.984;7.964;2023-02-19T03:25:36;97855.97;;;9.19;82.61
43701;BME280;58809;47.984;7.964;2023-02-19T03:29:09;97824.81;;;9.23;82.95
43701;BME280;58809;47.984;7.964;2023-02-19T03:36:05;97860.66;;;9.25;82.26
43701;BME280;58809;47.984;7.964;2023-02-19T03:39:14;97870.41;;;9.25;82.70
43701;BME280;58809;47.984;7.964;2023-02-19T03:42:45;97881.47;;;9.29;81.86
43701;BME280;58809;47.984;7.964;2023-02-19T03:49:05;97870.28;;;9.35;81.09
43701;BME280;58809;47.984;7.964;2023-02-19T03:59:12;97876.59;;;9.42;79.94
43701;BME280;58809;47.984;7.964;2023-02-19T04:02:34;97875.44;;;9.44;79.89
43701;BME280;58809;47.984;7.964;2023-02-19T04:05:44;97894.59;;;9.47;79.14
43701;BME280;58809;47.984;7.964;2023-02-19T04:08:52;97889.31;;;9.47;79.53
43701;BME280;58809;47.984;7.964;2023-02-19T04:11:57;97901.84;;;9.44;79.16
43701;BME280;58809;47.984;7.964;2023-02-19T04:15:02;97892.13;;;9.45;79.52
43701;BME280;58809;47.984;7.964;2023-02-19T04:18:09;97891.28;;;9.44;79.27
43701;BME280;58809;47.984;7.964;2023-02-19T04:21:13;97879.09;;;9.43;79.47
43701;BME280;58809;47.984;7.964;2023-02-19T04:24:22;97874.94;;;9.41;79.32
43701;BME280;58809;47.984;7.964;2023-02-19T04:27:25;97870.81;;;9.38;79.34
43701;BME280;58809;47.984;7.964;2023-02-19T04:30:27;97873.97;;;9.42;79.72
43701;BME280;58809;47.984;7.964;2023-02-19T04:33:29;97867.84;;;9.41;78.60
43701;BME280;58809;47.984;7.964;2023-02-19T04:36:31;97870.50;;;9.41;78.50
43701;BME280;58809;47.984;7.964;2023-02-19T04:39:33;97860.09;;;9.40;78.74
43701;BME280;58809;47.984;7.964;2023-02-19T04:42:35;97856.94;;;9.36;78.63
43701;BME280;58809;47.984;7.964;2023-02-19T04:45:37;97859.94;;;9.41;77.06
43701;BME280;58809;47.984;7.964;2023-02-19T04:48:39;97873.28;;;9.40;77.82
43701;BME280;58809;47.984;7.964;2023-02-19T04:51:40;97869.66;;;9.41;77.61
43701;BME280;58809;47.984;7.964;2023-02-19T04:54:42;97867.16;;;9.39;78.28
43701;BME280;58809;47.984;7.964;2023-02-19T04:57:43;97877.72;;;9.39;77.63
43701;BME280;58809;47.984;7.964;2023-02-19T05:00:45;97893.06;;;9.36;78.35
43701;BME280;58809;47.984;7.964;2023-02-19T05:03:46;97879.19;;;9.34;79.08
43701;BME280;58809;47.984;7.964;2023-02-19T05:06:49;97882.16;;;9.31;78.81
43701;BME280;58809;47.984;7.964;2023-02-19T05:09:50;97894.50;;;9.30;78.81
43701;BME280;58809;47.984;7.964;2023-02-19T05:12:53;97908.72;;;9.29;78.69
43701;BME280;58809;47.984;7.964;2023-02-19T05:16:00;97893.16;;;9.26;79.28
43701;BME280;58809;47.984;7.964;2023-02-19T05:19:02;97889.84;;;9.24;79.11
43701;BME280;58809;47.984;7.964;2023-02-19T05:22:04;97925.50;;;9.20;79.11
43701;BME280;58809;47.984;7.964;2023-02-19T05:25:05;97904.38;;;9.20;79.91
43701;BME280;58809;47.984;7.964;2023-02-19T05:28:07;97971.88;;;9.22;79.60
43701;BME280;58809;47.984;7.964;2023-02-19T05:31:17;97907.97;;;9.19;79.35
43701;BME280;58809;47.984;7.964;2023-02-19T05:34:19;97925.94;;;9.15;79.35
43701;BME280;58809;47.984;7.964;2023-02-19T05:37:21;97937.66;;;9.13;80.39
43701;BME280;58809;47.984;7.964;2023-02-19T05:40:22;97921.44;;;9.08;79.85
43701;BME280;58809;47.984;7.964;2023-02-19T05:43:24;97937.56;;;9.04;81.15
43701;BME280;58809;47.984;7.964;2023-02-19T05:46:27;97925.66;;;9.00;81.45
43701;BME280;58809;47.984;7.964;2023-02-19T05:49:32;97935.84;;;8.95;82.17
43701;BME280;58809;47.984;7.964;2023-02-19T05:52:34;97941.13;;;8.95;82.34
43701;BME280;58809;47.984;7.964;2023-02-19T05:55:35;97928.69;;;8.88;84.20
43701;BME280;58809;47.984;7.964;2023-02-19T05:58:37;97942.66;;;8.80;84.14
43701;BME280;58809;47.984;7.964;2023-02-19T06:01:38;97938.34;;;8.79;85.09
43701;BME280;58809;47.984;7.964;2023-02-19T06:04:40;97922.50;;;8.79;85.25
43701;BME280;58809;47.984;7.964;2023-02-19T06:07:41;97940.31;;;8.77;85.57
43701;BME280;58809;47.984;7.964;2023-02-19T06:10:43;97964.22;;;8.75;85.82
43701;BME280;58809;47.984;7.964;2023-02-19T06:13:45;97945.91;;;8.74;86.33
43701;BME280;58809;47.984;7.964;2023-02-19T06:16:46;97977.56;;;8.74;86.59
43701;BME280;58809;47.984;7.964;2023-02-19T06:19:48;97974.09;;;8.73;86.79
43701;BME280;58809;47.984;7.964;2023-02-19T06:22:49;97974.94;;;8.74;87.27
43701;BME280;58809;47.984;7.964;2023-02-19T06:25:52;97976.72;;;8.73;87.24
43701;BME280;58809;47.984;7.964;2023-02-19T06:28:53;97974.41;;;8.70;87.62
43701;BME280;58809;47.984;7.964;2023-02-19T06:31:55;97980.66;;;8.69;88.13
43701;BME280;58809;47.984;7.964;2023-02-19T06:34:56;97972.75;;;8.69;88.09
43701;BME280;58809;47.984;7.964;2023-02-19T06:37:58;97982.16;;;8.72;88.09
43701;BME280;58809;47.984;7.964;2023-02-19T06:41:00;97980.03;;;8.75;87.73
43701;BME280;58809;47.984;7.964;2023-02-19T06:44:02;97982.53;;;8.77;87.83
43701;BME280;58809;47.984;7.964;2023-02-19T06:47:04;98002.81;;;8.76;88.11
43701;BME280;58809;47.984;7.964;2023-02-19T06:50:05;97992.28;;;8.76;88.41
43701;BME280;58809;47.984;7.964;2023-02-19T06:53:07;98007.28;;;8.76;88.10
43701;BME280;58809;47.984;7.964;2023-02-19T06:56:29;98007.56;;;8.73;88.61
43701;BME280;58809;47.984;7.964;2023-02-19T06:59:30;98001.47;;;8.72;88.88
43701;BME280;58809;47.984;7.964;2023-02-19T07:02:32;98015.19;;;8.76;88.84
43701;BME280;58809;47.984;7.964;2023-02-19T07:05:33;98018.50;;;8.78;88.73
43701;BME280;58809;47.984;7.964;2023-02-19T07:08:35;98015.88;;;8.78;88.95
43701;BME280;58809;47.984;7.964;2023-02-19T07:11:38;98019.47;;;8.77;89.35
43701;BME280;58809;47.984;7.964;2023-02-19T07:14:39;98012.56;;;8.76;89.29
43701;BME280;58809;47.984;7.964;2023-02-19T07:17:41;98026.72;;;8.75;88.89
43701;BME280;58809;47.984;7.964;2023-02-19T07:20:42;98035.47;;;8.75;89.56
43701;BME280;58809;47.984;7.964;2023-02-19T07:23:44;98047.41;;;8.79;89.13
43701;BME280;58809;47.984;7.964;2023-02-19T07:26:46;98054.47;;;8.79;88.66
43701;BME280;58809;47.984;7.964;2023-02-19T07:29:47;98047.53;;;8.78;89.13
43701;BME280;58809;47.984;7.964;2023-02-19T07:32:49;98056.56;;;8.75;89.66
43701;BME280;58809;47.984;7.964;2023-02-19T07:35:51;98052.81;;;8.78;89.60
43701;BME280;58809;47.984;7.964;2023-02-19T07:38:56;98058.63;;;8.81;88.78
43701;BME280;58809;47.984;7.964;2023-02-19T07:41:58;98073.63;;;8.81;88.57
43701;BME280;58809;47.984;7.964;2023-02-19T07:45:00;98078.22;;;8.79;88.90
43701;BME280;58809;47.984;7.964;2023-02-19T07:48:02;98068.34;;;8.81;88.57
43701;BME280;58809;47.984;7.964;2023-02-19T07:51:05;98090.22;;;8.91;88.47
43701;BME280;58809;47.984;7.964;2023-02-19T07:54:07;98084.81;;;8.93;87.65
43701;BME280;58809;47.984;7.964;2023-02-19T07:57:08;98094.63;;;9.00;88.25
43701;BME280;58809;47.984;7.964;2023-02-19T08:00:10;98092.44;;;9.14;87.28
43701;BME280;58809;47.984;7.964;2023-02-19T08:03:15;98098.72;;;9.13;86.75
43701;BME280;58809;47.984;7.964;2023-02-19T08:06:16;98105.94;;;9.11;87.30
43701;BME280;58809;47.984;7.964;2023-02-19T08:09:18;98109.47;;;9.19;86.15
43701;BME280;58809;47.984;7.964;2023-02-19T08:12:19;98111.16;;;9.20;86.46
43701;BME280;58809;47.984;7.964;2023-02-19T08:15:39;98122.63;;;9.11;86.63
43701;BME280;58809;47.984;7.964;2023-02-19T08:18:41;98119.06;;;9.02;87.56
43701;BME280;58809;47.984;7.964;2023-02-19T08:21:42;98126.22;;;8.92;89.14
43701;BME280;58809;47.984;7.964;2023-02-19T08:24:44;98144.19;;;8.79;89.45
43701;BME280;58809;47.984;7.964;2023-02-19T08:27:45;98141.06;;;8.65;91.70
43701;BME280;58809;47.984;7.964;2023-02-19T08:30:47;98135.56;;;8.49;93.08
43701;BME280;58809;47.984;7.964;2023-02-19T08:33:49;98133.63;;;8.51;94.07
43701;BME280;58809;47.984;7.964;2023-02-19T08:36:50;98139.03;;;8.50;93.93
43701;BME280;58809;47.984;7.964;2023-02-19T08:39:52;98149.44;;;8.51;93.97
43701;BME280;58809;47.984;7.964;2023-02-19T08:42:53;98148.44;;;8.62;94.47
43701;BME280;58809;47.984;7.964;2023-02-19T08:45:55;98150.75;;;8.75;93.42
43701;BME280;58809;47.984;7.964;2023-02-19T08:48:56;98143.94;;;9.00;92.70
43701;BME280;58809;47.984;7.964;2023-02-19T08:51:58;98142.09;;;9.46;89.63
43701;BME280;58809;47.984;7.964;2023-02-19T08:55:01;98151.78;;;9.55;87.54
43701;BME280;58809;47.984;7.964;2023-02-19T08:58:02;98160.09;;;9.60;87.24
43701;BME280;58809;47.984;7.964;2023-02-19T09:01:13;98145.13;;;9.51;86.54
43701;BME280;58809;47.984;7.964;2023-02-19T09:04:16;98151.25;;;9.52;86.49
43701;BME280;58809;47.984;7.964;2023-02-19T09:07:18;98154.03;;;9.50;86.55
43701;BME280;58809;47.984;7.964;2023-02-19T09:10:19;98161.19;;;9.58;85.90
43701;BME280;58809;47.984;7.964;2023-02-19T09:13:21;98162.28;;;9.47;85.29
43701;BME280;58809;47.984;7.964;2023-02-19T09:16:22;98170.56;;;9.34;85.40
43701;BME280;58809;47.984;7.964;2023-02-19T09:19:24;98167.75;;;9.36;85.81
43701;BME280;58809;47.984;7.964;2023-02-19T09:22:26;98166.84;;;9.45;85.88
43701;BME280;58809;47.984;7.964;2023-02-19T09:25:28;98172.38;;;9.70;84.45
43701;BME280;58809;47.984;7.964;2023-02-19T09:28:29;98176.81;;;9.87;83.12
43701;BME280;58809;47.984;7.964;2023-02-19T09:31:31;98178.19;;;9.91;81.71
43701;BME280;58809;47.984;7.964;2023-02-19T09:34:35;98173.84;;;10.08;80.19
43701;BME280;58809;47.984;7.964;2023-02-19T09:37:38;98181.38;;;10.39;78.57
43701;BME280;58809;47.984;7.964;2023-02-19T09:40:39;98180.16;;;10.59;76.35
43701;BME280;58809;47.984;7.964;2023-02-19T09:43:41;98165.59;;;10.55;75.90
43701;BME280;58809;47.984;7.964;2023-02-19T09:46:49;98156.72;;;10.73;75.27
43701;BME280;58809;47.984;7.964;2023-02-19T09:50:10;98157.31;;;10.93;73.51
43701;BME280;58809;47.984;7.964;2023-02-19T09:53:39;98150.25;;;11.02;72.62
43701;BME280;58809;47.984;7.964;2023-02-19T09:56:42;98156.56;;;11.09;71.24
43701;BME280;58809;47.984;7.964;2023-02-19T09:59:50;98150.25;;;11.10;71.56
43701;BME280;58809;47.984;7.964;2023-02-19T10:03:13;98141.31;;;11.03;69.60
43701;BME280;58809;47.984;7.964;2023-02-19T10:06:22;98151.41;;;10.99;70.69
43701;BME280;58809;47.984;7.964;2023-02-19T10:09:25;98147.94;;;11.15;70.41
43701;BME280;58809;47.984;7.964;2023-02-19T10:12:29;98163.59;;;11.51;68.78
43701;BME280;58809;47.984;7.964;2023-02-19T10:15:36;98156.50;;;11.68;68.05
43701;BME280;58809;47.984;7.964;2023-02-19T10:18:41;98150.38;;;11.75;66.66
43701;BME280;58809;47.984;7.964;2023-02-19T10:21:43;98154.34;;;11.63;66.74
43701;BME280;58809;47.984;7.964;2023-02-19T10:24:49;98147.22;;;11.72;67.25
43701;BME280;58809;47.984;7.964;2023-02-19T10:27:52;98141.91;;;11.72;66.53
43701;BME280;58809;47.984;7.964;2023-02-19T10:30:59;98162.31;;;11.88;64.96
43701;BME280;58809;47.984;7.964;2023-02-19T10:34:01;98157.72;;;11.98;65.31
43701;BME280;58809;47.984;7.964;2023-02-19T10:37:03;98156.00;;;12.30;63.90
43701;BME280;58809;47.984;7.964;2023-02-19T10:40:13;98161.31;;;12.30;63.07
43701;BME280;58809;47.984;7.964;2023-02-19T10:43:22;98167.94;;;12.34;63.75
43701;BME280;58809;47.984;7.964;2023-02-19T10:46:36;98173.91;;;12.44;63.32
43701;BME280;58809;47.984;7.964;2023-02-19T10:49:41;98187.34;;;12.43;62.97
43701;BME280;58809;47.984;7.964;2023-02-19T10:52:51;98186.03;;;12.14;62.74
43701;BME280;58809;47.984;7.964;2023-02-19T11:02:20;98202.69;;;11.57;63.28
43701;BME280;58809;47.984;7.964;2023-02-19T11:05:21;98207.16;;;11.40;63.77
43701;BME280;58809;47.984;7.964;2023-02-19T11:08:24;98202.31;;;11.35;64.47
43701;BME280;58809;47.984;7.964;2023-02-19T11:11:36;98206.84;;;11.43;63.63
43701;BME280;58809;47.984;7.964;2023-02-19T11:14:43;98198.47;;;11.22;64.33
43701;BME280;58809;47.984;7.964;2023-02-19T11:17:56;98190.38;;;11.31;64.32
43701;BME280;58809;47.984;7.964;2023-02-19T11:21:23;98193.19;;;11.30;63.92
43701;BME280;58809;47.984;7.964;2023-02-19T11:24:32;98207.50;;;11.45;63.83
43701;BME280;58809;47.984;7.964;2023-02-19T11:27:35;98196.41;;;11.50;63.93
43701;BME280;58809;47.984;7.964;2023-02-19T11:30:53;98204.09;;;11.86;63.91
43701;BME280;58809;47.984;7.964;2023-02-19T11:37:16;98191.84;;;11.93;63.93
43701;BME280;58809;47.984;7.964;2023-02-19T11:40:19;98188.16;;;11.78;64.29
43701;BME280;58809;47.984;7.964;2023-02-19T11:43:30;98177.53;;;11.78;64.53
43701;BME280;58809;47.984;7.964;2023-02-19T11:46:46;98167.25;;;11.50;65.04
43701;BME280;58809;47.984;7.964;2023-02-19T11:49:57;98173.16;;;11.35;66.06
43701;BME280;58809;47.984;7.964;2023-02-19T11:53:26;98170.59;;;11.01;67.75
43701;BME280;58809;47.984;7.964;2023-02-19T11:56:33;98167.22;;;10.83;67.43
43701;BME280;58809;47.984;7.964;2023-02-19T11:59:45;98172.38;;;10.92;68.18
43701;BME280;58809;47.984;7.964;2023-02-19T12:06:20;98163.19;;;11.13;67.00
43701;BME280;58809;47.984;7.964;2023-02-19T12:09:35;98162.31;;;11.04;66.61
43701;BME280;58809;47.984;7.964;2023-02-19T12:29:22;98159.72;;;11.12;65.69
43701;BME280;58809;47.984;7.964;2023-02-19T12:32:29;98166.13;;;11.02;66.14
43701;BME280;58809;47.984;7.964;2023-02-19T12:39:03;98169.44;;;10.95;66.84
43701;BME280;58809;47.984;7.964;2023-02-19T12:49:00;98179.00;;;10.96;64.41
43701;BME280;58809;47.984;7.964;2023-02-19T12:52:10;98186.50;;;11.01;63.54
43701;BME280;58809;47.984;7.964;2023-02-19T12:55:29;98168.13;;;11.08;62.83
43701;BME280;58809;47.984;7.964;2023-02-19T12:58:45;98150.94;;;11.12;62.74
43701;BME280;58809;47.984;7.964;2023-02-19T13:02:04;98151.91;;;11.11;62.61
43701;BME280;58809;47.984;7.964;2023-02-19T13:12:04;98164.44;;;11.43;62.14
43701;BME280;58809;47.984;7.964;2023-02-19T13:15:39;98155.81;;;11.74;61.25
43701;BME280;58809;47.984;7.964;2023-02-19T13:18:45;98148.72;;;11.83;60.93
43701;BME280;58809;47.984;7.964;2023-02-19T13:21:57;98132.81;;;11.83;60.22
43701;BME280;58809;47.984;7.964;2023-02-19T13:25:37;98145.91;;;11.84;59.15
43701;BME280;58809;47.984;7.964;2023-02-19T13:32:30;98151.69;;;11.63;59.04
43701;BME280;58809;47.984;7.964;2023-02-19T13:35:51;98155.53;;;11.69;59.39
43701;BME280;58809;47.984;7.964;2023-02-19T13:38:58;98150.69;;;11.64;59.65
43701;BME280;58809;47.984;7.964;2023-02-19T13:42:00;98153.84;;;11.60;60.05
43701;BME280;58809;47.984;7.964;2023-02-19T13:45:04;98162.28;;;11.47;60.13
43701;BME280;58809;47.984;7.964;2023-02-19T13:48:30;98155.91;;;11.15;61.29
43701;BME280;58809;47.984;7.964;2023-02-19T13:54:34;98143.53;;;10.81;61.37
43701;BME280;58809;47.984;7.964;2023-02-19T13:57:40;98148.44;;;10.68;62.10
43701;BME280;58809;47.984;7.964;2023-02-19T14:00:51;98159.97;;;10.58;61.97
43701;BME280;58809;47.984;7.964;2023-02-19T14:04:07;98155.53;;;10.59;62.06
43701;BME280;58809;47.984;7.964;2023-02-19T14:10:53;98150.19;;;10.51;62.13
43701;BME280;58809;47.984;7.964;2023-02-19T14:13:59;98152.28;;;10.39;62.47
43701;BME280;58809;47.984;7.964;2023-02-19T14:20:43;98149.25;;;10.34;63.42
43701;BME280;58809;47.984;7.964;2023-02-19T14:23:54;98146.22;;;10.29;63.19
43701;BME280;58809;47.984;7.964;2023-02-19T14:26:58;98141.94;;;10.28;63.41
43701;BME280;58809;47.984;7.964;2023-02-19T14:30:01;98152.22;;;10.31;63.69
43701;BME280;58809;47.984;7.964;2023-02-19T14:33:03;98148.50;;;10.24;63.35
43701;BME280;58809;47.984;7.964;2023-02-19T14:39:19;98159.66;;;10.09;64.43
43701;BME280;58809;47.984;7.964;2023-02-19T14:42:24;98157.47;;;10.05;63.74
43701;BME280;58809;47.984;7.964;2023-02-19T14:45:40;98160.25;;;10.03;63.64
43701;BME280;58809;47.984;7.964;2023-02-19T14:48:45;98187.50;;;10.21;63.21
43701;BME280;58809;47.984;7.964;2023-02-19T14:51:51;98170.47;;;10.42;63.12
43701;BME280;58809;47.984;7.964;2023-02-19T14:54:57;98169.84;;;10.48;63.01
43701;BME280;58809;47.984;7.964;2023-02-19T14:58:05;98170.66;;;10.40;62.92
43701;BME280;58809;47.984;7.964;2023-02-19T15:01:27;98181.31;;;10.31;62.74
43701;BME280;58809;47.984;7.964;2023-02-19T15:04:34;98184.56;;;10.25;63.73
43701;BME280;58809;47.984;7.964;2023-02-19T15:07:36;98178.06;;;10.19;63.26
43701;BME280;58809;47.984;7.964;2023-02-19T15:10:40;98185.41;;;10.07;63.83
43701;BME280;58809;47.984;7.964;2023-02-19T15:13:42;98186.41;;;10.06;63.73
43701;BME280;58809;47.984;7.964;2023-02-19T15:16:46;98194.47;;;10.05;64.40
43701;BME280;58809;47.984;7.964;2023-02-19T15:19:48;98193.66;;;10.04;64.07
43701;BME280;58809;47.984;7.964;2023-02-19T15:22:50;98198.66;;;9.89;64.40
43701;BME280;58809;47.984;7.964;2023-02-19T15:25:52;98196.09;;;9.79;64.73
43701;BME280;58809;47.984;7.964;2023-02-19T15:29:02;98183.47;;;9.73;64.99
43701;BME280;58809;47.984;7.964;2023-02-19T15:32:25;98175.69;;;9.72;64.57
43701;BME280;58809;47.984;7.964;2023-02-19T15:35:27;98190.94;;;9.78;64.82
43701;BME280;58809;47.984;7.964;2023-02-19T15:38:30;98196.16;;;9.88;65.17
43701;BME280;58809;47.984;7.964;2023-02-19T15:41:33;98189.59;;;9.92;65.29
43701;BME280;58809;47.984;7.964;2023-02-19T15:48:12;98197.22;;;9.95;65.97
43701;BME280;58809;47.984;7.964;2023-02-19T15:51:21;98198.50;;;9.91;66.84
43701;BME280;58809;47.984;7.964;2023-02-19T15:54:50;98206.59;;;9.89;66.49
43701;BME280;58809;47.984;7.964;2023-02-19T15:58:02;98212.31;;;9.85;66.33
43701;BME280;58809;47.984;7.964;2023-02-19T16:01:28;98205.00;;;9.78;66.67
43701;BME280;58809;47.984;7.964;2023-02-19T16:04:32;98218.53;;;9.75;67.04
43701;BME280;58809;47.984;7.964;2023-02-19T16:07:34;98221.91;;;9.68;66.61
43701;BME280;58809;47.984;7.964;2023-02-19T16:10:36;98234.91;;;9.61;67.61
43701;BME280;58809;47.984;7.964;2023-02-19T16:13:38;98233.78;;;9.63;67.32
43701;BME280;58809;47.984;7.964;2023-02-19T16:16:40;98229.47;;;9.62;67.63
43701;BME280;58809;47.984;7.964;2023-02-19T16:19:54;98248.25;;;9.59;67.84
43701;BME280;58809;47.984;7.964;2023-02-19T16:23:00;98250.69;;;9.53;68.12
43701;BME280;58809;47.984;7.964;2023-02-19T16:26:02;98243.19;;;9.48;68.14
43701;BME280;58809;47.984;7.964;2023-02-19T16:29:19;98250.56;;;9.44;68.23
43701;BME280;58809;47.984;7.964;2023-02-19T16:32:21;98247.38;;;9.41;68.12
43701;BME280;58809;47.984;7.964;2023-02-19T16:35:37;98263.03;;;9.34;68.01
43701;BME280;58809;47.984;7.964;2023-02-19T16:38:40;98254.84;;;9.28;68.62
43701;BME280;58809;47.984;7.964;2023-02-19T16:44:46;98254.97;;;9.26;68.83
43701;BME280;58809;47.984;7.964;2023-02-19T16:47:48;98267.22;;;9.27;69.25
43701;BME280;58809;47.984;7.964;2023-02-19T16:50:51;98251.38;;;9.27;68.87
43701;BME280;58809;47.984;7.964;2023-02-19T16:53:53;98262.22;;;9.24;69.41
43701;BME280;58809;47.984;7.964;2023-02-19T16:56:54;98277.00;;;9.17;69.66
43701;BME280;58809;47.984;7.964;2023-02-19T16:59:56;98277.44;;;9.12;70.25
43701;BME280;58809;47.984;7.964;2023-02-19T17:03:00;98273.13;;;9.11;69.89
43701;BME280;58809;47.984;7.964;2023-02-19T17:06:03;98271.31;;;9.12;69.92
43701;BME280;58809;47.984;7.964;2023-02-19T17:09:06;98274.81;;;9.12;69.73
43701;BME280;58809;47.984;7.964;2023-02-19T17:12:13;98265.88;;;9.13;69.94
43701;BME280;58809;47.984;7.964;2023-02-19T17:15:15;98264.38;;;9.11;69.75
43701;BME280;58809;47.984;7.964;2023-02-19T17:18:17;98262.16;;;9.06;70.46
43701;BME280;58809;47.984;7.964;2023-02-19T17:21:21;98259.38;;;9.08;70.31
43701;BME280;58809;47.984;7.964;2023-02-19T17:24:23;98245.34;;;9.07;70.33
43701;BME280;58809;47.984;7.964;2023-02-19T17:27:25;98263.97;;;9.05;70.40
43701;BME280;58809;47.984;7.964;2023-02-19T17:30:29;98263.28;;;9.03;70.45
43701;BME280;58809;47.984;7.964;2023-02-19T17:33:31;98264.94;;;9.04;69.95
43701;BME280;58809;47.984;7.964;2023-02-19T17:36:32;98272.72;;;9.06;70.00
43701;BME280;58809;47.984;7.964;2023-02-19T17:39:34;98274.81;;;9.02;69.68
43701;BME280;58809;47.984;7.964;2023-02-19T17:42:35;98278.44;;;9.01;70.54
43701;BME280;58809;47.984;7.964;2023-02-19T17:45:37;98282.19;;;8.99;69.93
43701;BME280;58809;47.984;7.964;2023-02-19T17:48:38;98278.03;;;8.96;70.61
43701;BME280;58809;47.984;7.964;2023-02-19T17:51:40;98272.09;;;8.94;70.65
43701;BME280;58809;47.984;7.964;2023-02-19T17:54:41;98283.47;;;8.95;70.17
43701;BME280;58809;47.984;7.964;2023-02-19T17:57:48;98275.81;;;8.92;70.16
43701;BME280;58809;47.984;7.964;2023-02-19T18:00:59;98275.00;;;8.91;70.08
43701;BME280;58809;47.984;7.964;2023-02-19T18:04:01;98283.47;;;8.95;70.27
43701;BME280;58809;47.984;7.964;2023-02-19T18:07:03;98280.97;;;8.93;70.52
43701;BME280;58809;47.984;7.964;2023-02-19T18:10:05;98272.50;;;8.99;70.16
43701;BME280;58809;47.984;7.964;2023-02-19T18:13:07;98281.97;;;8.92;70.36
43701;BME280;58809;47.984;7.964;2023-02-19T18:16:09;98281.50;;;8.97;70.61
43701;BME280;58809;47.984;7.964;2023-02-19T18:19:11;98285.97;;;8.96;70.69